sensor_id;sensor_type;location;lat;lon;timestamp;P1;durP1;ratioP1;P2;durP2;ratioP2
3523;SDS011;1776;53.330;11.498;2023-07-28T00:01:28;2.73;;;2.53;;
3523;SDS011;1776;53.330;11.498;2023-07-28T00:03:53;3.07;;;2.83;;
3523;SDS011;1776;53.330;11.498;2023-07-28T00:06:18;2.87;;;2.67;;
3523;SDS011;1776;53.330;11.498;2023-07-28T00:08:44;3.10;;;2.80;;
3523;SDS011;1776;53.330;11.498;2023-07-28T00:11:13;3.63;;;3.33;;
3523;SDS011;1776;53.330;11.498;2023-07-28T00:13:39;3.13;;;2.83;;
3523;SDS011;1776;53.330;11.498;2023-07-28T00:16:05;3.17;;;2.90;;
3523;SDS011;1776;53.330;11.498;2023-07-28T00:18:31;2.97;;;2.77;;
3523;SDS011;1776;53.330;11.498;2023-07-28T00:20:56;3.43;;;3.13;;
3523;SDS011;1776;53.330;11.498;2023-07-28T00:23:22;4.30;;;3.83;;
3523;SDS011;1776;53.330;11.498;2023-07-28T00:25:47;3.30;;;3.00;;
3523;SDS011;1776;53.330;11.498;2023-07-28T00:28:12;3.67;;;3.37;;
3523;SDS011;1776;53.330;11.498;2023-07-28T00:30:38;3.77;;;3.47;;
3523;SDS011;1776;53.330;11.498;2023-07-28T00:33:04;3.73;;;3.40;;
3523;SDS011;1776;53.330;11.498;2023-07-28T00:35:29;3.50;;;3.20;;
3523;SDS011;1776;53.330;11.498;2023-07-28T00:37:54;3.90;;;3.60;;
3523;SDS011;1776;53.330;11.498;2023-07-28T00:40:21;4.17;;;3.80;;
3523;SDS011;1776;53.330;11.498;2023-07-28T00:42:47;4.03;;;3.73;;
3523;SDS011;1776;53.330;11.498;2023-07-28T00:45:12;3.90;;;3.60;;
3523;SDS011;1776;53.330;11.498;2023-07-28T00:47:37;3.97;;;3.67;;
3523;SDS011;1776;53.330;11.498;2023-07-28T00:50:03;4.00;;;3.70;;
3523;SDS011;1776;53.330;11.498;2023-07-28T00:52:29;4.30;;;3.90;;
3523;SDS011;1776;53.330;11.498;2023-07-28T00:54:54;4.50;;;4.10;;
3523;SDS011;1776;53.330;11.498;2023-07-28T00:57:20;3.80;;;3.50;;
3523;SDS011;1776;53.330;11.498;2023-07-28T00:59:45;5.00;;;4.50;;
3523;SDS011;1776;53.330;11.498;2023-07-28T01:02:11;5.27;;;4.87;;
3523;SDS011;1776;53.330;11.498;2023-07-28T01:04:37;4.10;;;3.80;;
3523;SDS011;1776;53.330;11.498;2023-07-28T01:09:50;5.27;;;4.00;;
3523;SDS011;1776;53.330;11.498;2023-07-28T01:12:22;4.60;;;4.10;;
3523;SDS011;1776;53.330;11.498;2023-07-28T01:14:48;4.77;;;4.30;;
3523;SDS011;1776;53.330;11.498;2023-07-28T01:17:14;4.37;;;4.00;;
3523;SDS011;1776;53.330;11.498;2023-07-28T01:19:39;4.93;;;4.43;;
3523;SDS011;1776;53.330;11.498;2023-07-28T01:22:09;6.60;;;5.80;;
3523;SDS011;1776;53.330;11.498;2023-07-28T01:27:16;6.10;;;5.50;;
3523;SDS011;1776;53.330;11.498;2023-07-28T01:29:42;5.67;;;5.17;;
3523;SDS011;1776;53.330;11.498;2023-07-28T01:32:10;6.37;;;5.70;;
3523;SDS011;1776;53.330;11.498;2023-07-28T01:34:36;5.70;;;5.03;;
3523;SDS011;1776;53.330;11.498;2023-07-28T01:37:01;5.00;;;4.23;;
3523;SDS011;1776;53.330;11.498;2023-07-28T01:39:27;5.50;;;5.00;;
3523;SDS011;1776;53.330;11.498;2023-07-28T01:41:52;4.50;;;4.10;;
3523;SDS011;1776;53.330;11.498;2023-07-28T01:44:17;6.67;;;5.30;;
3523;SDS011;1776;53.330;11.498;2023-07-28T01:46:42;5.83;;;5.33;;
3523;SDS011;1776;53.330;11.498;2023-07-28T01:49:08;4.60;;;4.20;;
3523;SDS011;1776;53.330;11.498;2023-07-28T01:51:33;6.10;;;5.00;;
3523;SDS011;1776;53.330;11.498;2023-07-28T01:53:58;5.43;;;4.93;;
3523;SDS011;1776;53.330;11.498;2023-07-28T01:56:23;6.13;;;5.57;;
3523;SDS011;1776;53.330;11.498;2023-07-28T01:58:49;4.90;;;4.50;;
3523;SDS011;1776;53.330;11.498;2023-07-28T02:01:14;8.37;;;4.77;;
3523;SDS011;1776;53.330;11.498;2023-07-28T02:03:39;4.93;;;4.40;;
3523;SDS011;1776;53.330;11.498;2023-07-28T02:06:04;6.80;;;5.10;;
3523;SDS011;1776;53.330;11.498;2023-07-28T02:08:31;5.93;;;4.33;;
3523;SDS011;1776;53.330;11.498;2023-07-28T02:10:56;4.20;;;3.90;;
3523;SDS011;1776;53.330;11.498;2023-07-28T02:13:21;4.60;;;4.20;;
3523;SDS011;1776;53.330;11.498;2023-07-28T02:15:46;4.53;;;4.07;;
3523;SDS011;1776;53.330;11.498;2023-07-28T02:18:12;6.07;;;5.10;;
3523;SDS011;1776;53.330;11.498;2023-07-28T02:20:37;5.23;;;4.80;;
3523;SDS011;1776;53.330;11.498;2023-07-28T02:23:03;5.17;;;4.67;;
3523;SDS011;1776;53.330;11.498;2023-07-28T02:25:29;4.83;;;4.43;;
3523;SDS011;1776;53.330;11.498;2023-07-28T02:27:54;4.53;;;4.13;;
3523;SDS011;1776;53.330;11.498;2023-07-28T02:30:20;5.30;;;4.43;;
3523;SDS011;1776;53.330;11.498;2023-07-28T02:32:45;4.70;;;4.30;;
3523;SDS011;1776;53.330;11.498;2023-07-28T02:35:10;4.47;;;4.07;;
3523;SDS011;1776;53.330;11.498;2023-07-28T02:37:35;5.10;;;4.70;;
3523;SDS011;1776;53.330;11.498;2023-07-28T02:40:01;4.30;;;3.90;;
3523;SDS011;1776;53.330;11.498;2023-07-28T02:42:26;3.83;;;3.53;;
3523;SDS011;1776;53.330;11.498;2023-07-28T02:44:51;4.30;;;3.90;;
3523;SDS011;1776;53.330;11.498;2023-07-28T02:47:17;3.43;;;3.20;;
3523;SDS011;1776;53.330;11.498;2023-07-28T02:49:42;3.80;;;3.50;;
3523;SDS011;1776;53.330;11.498;2023-07-28T02:52:08;3.83;;;3.50;;
3523;SDS011;1776;53.330;11.498;2023-07-28T02:54:33;3.03;;;2.83;;
3523;SDS011;1776;53.330;11.498;2023-07-28T02:56:59;3.30;;;3.00;;
3523;SDS011;1776;53.330;11.498;2023-07-28T02:59:24;3.77;;;3.47;;
3523;SDS011;1776;53.330;11.498;2023-07-28T03:01:49;4.63;;;3.60;;
3523;SDS011;1776;53.330;11.498;2023-07-28T03:04:17;4.40;;;4.00;;
3523;SDS011;1776;53.330;11.498;2023-07-28T03:06:43;4.17;;;3.77;;
3523;SDS011;1776;53.330;11.498;2023-07-28T03:09:09;3.80;;;3.47;;
3523;SDS011;1776;53.330;11.498;2023-07-28T03:11:34;3.70;;;3.40;;
3523;SDS011;1776;53.330;11.498;2023-07-28T03:13:59;3.80;;;3.37;;
3523;SDS011;1776;53.330;11.498;2023-07-28T03:16:25;4.70;;;4.30;;
3523;SDS011;1776;53.330;11.498;2023-07-28T03:18:50;3.87;;;3.50;;
3523;SDS011;1776;53.330;11.498;2023-07-28T03:21:15;3.80;;;3.50;;
3523;SDS011;1776;53.330;11.498;2023-07-28T03:23:40;4.57;;;4.17;;
3523;SDS011;1776;53.330;11.498;2023-07-28T03:26:06;4.80;;;4.40;;
3523;SDS011;1776;53.330;11.498;2023-07-28T03:28:31;4.47;;;4.07;;
3523;SDS011;1776;53.330;11.498;2023-07-28T03:30:56;3.97;;;3.67;;
3523;SDS011;1776;53.330;11.498;2023-07-28T03:33:22;5.30;;;4.80;;
3523;SDS011;1776;53.330;11.498;2023-07-28T03:35:47;4.73;;;4.33;;
3523;SDS011;1776;53.330;11.498;2023-07-28T03:38:12;4.50;;;4.10;;
3523;SDS011;1776;53.330;11.498;2023-07-28T03:40:37;3.53;;;3.23;;
3523;SDS011;1776;53.330;11.498;2023-07-28T03:43:03;4.40;;;4.00;;
3523;SDS011;1776;53.330;11.498;2023-07-28T03:45:28;4.57;;;4.00;;
3523;SDS011;1776;53.330;11.498;2023-07-28T03:47:53;5.07;;;4.67;;
3523;SDS011;1776;53.330;11.498;2023-07-28T03:50:19;4.83;;;4.43;;
3523;SDS011;1776;53.330;11.498;2023-07-28T03:52:44;4.63;;;4.23;;
3523;SDS011;1776;53.330;11.498;2023-07-28T03:55:09;4.10;;;3.70;;
3523;SDS011;1776;53.330;11.498;2023-07-28T03:57:35;3.93;;;3.63;;
3523;SDS011;1776;53.330;11.498;2023-07-28T04:00:00;4.13;;;3.80;;
3523;SDS011;1776;53.330;11.498;2023-07-28T04:02:25;4.20;;;3.60;;
3523;SDS011;1776;53.330;11.498;2023-07-28T04:04:54;4.23;;;3.67;;
3523;SDS011;1776;53.330;11.498;2023-07-28T04:07:20;4.20;;;3.90;;
3523;SDS011;1776;53.330;11.498;2023-07-28T04:09:45;4.67;;;4.27;;
3523;SDS011;1776;53.330;11.498;2023-07-28T04:12:10;3.67;;;3.37;;
3523;SDS011;1776;53.330;11.498;2023-07-28T04:14:35;4.90;;;4.40;;
3523;SDS011;1776;53.330;11.498;2023-07-28T04:17:01;4.60;;;3.97;;
3523;SDS011;1776;53.330;11.498;2023-07-28T04:19:26;4.40;;;4.10;;
3523;SDS011;1776;53.330;11.498;2023-07-28T04:21:54;4.83;;;4.10;;
3523;SDS011;1776;53.330;11.498;2023-07-28T04:24:19;6.80;;;4.20;;
3523;SDS011;1776;53.330;11.498;2023-07-28T04:26:44;3.73;;;3.40;;
3523;SDS011;1776;53.330;11.498;2023-07-28T04:29:13;3.93;;;3.53;;
3523;SDS011;1776;53.330;11.498;2023-07-28T04:31:39;4.40;;;4.00;;
3523;SDS011;1776;53.330;11.498;2023-07-28T04:34:04;4.27;;;3.87;;
3523;SDS011;1776;53.330;11.498;2023-07-28T04:36:29;5.67;;;4.97;;
3523;SDS011;1776;53.330;11.498;2023-07-28T04:38:54;8.93;;;5.10;;
3523;SDS011;1776;53.330;11.498;2023-07-28T04:41:20;5.20;;;4.70;;
3523;SDS011;1776;53.330;11.498;2023-07-28T04:43:46;5.00;;;4.50;;
3523;SDS011;1776;53.330;11.498;2023-07-28T04:46:11;4.93;;;4.40;;
3523;SDS011;1776;53.330;11.498;2023-07-28T04:48:36;4.20;;;3.70;;
3523;SDS011;1776;53.330;11.498;2023-07-28T04:51:01;4.17;;;3.80;;
3523;SDS011;1776;53.330;11.498;2023-07-28T04:53:27;3.77;;;3.33;;
3523;SDS011;1776;53.330;11.498;2023-07-28T04:55:52;3.50;;;3.20;;
3523;SDS011;1776;53.330;11.498;2023-07-28T04:58:17;3.23;;;2.90;;
3523;SDS011;1776;53.330;11.498;2023-07-28T05:00:43;6.53;;;2.70;;
3523;SDS011;1776;53.330;11.498;2023-07-28T05:03:08;2.97;;;2.67;;
3523;SDS011;1776;53.330;11.498;2023-07-28T05:05:33;3.03;;;2.80;;
3523;SDS011;1776;53.330;11.498;2023-07-28T05:07:58;2.27;;;2.07;;
3523;SDS011;1776;53.330;11.498;2023-07-28T05:10:24;2.10;;;1.90;;
3523;SDS011;1776;53.330;11.498;2023-07-28T05:12:49;1.97;;;1.73;;
3523;SDS011;1776;53.330;11.498;2023-07-28T05:15:14;1.20;;;1.10;;
3523;SDS011;1776;53.330;11.498;2023-07-28T05:17:40;1.20;;;1.17;;
3523;SDS011;1776;53.330;11.498;2023-07-28T05:20:06;0.90;;;0.90;;
3523;SDS011;1776;53.330;11.498;2023-07-28T05:22:31;0.97;;;0.90;;
3523;SDS011;1776;53.330;11.498;2023-07-28T05:24:57;1.00;;;0.97;;
3523;SDS011;1776;53.330;11.498;2023-07-28T05:27:22;1.30;;;1.13;;
3523;SDS011;1776;53.330;11.498;2023-07-28T05:29:47;1.27;;;1.17;;
3523;SDS011;1776;53.330;11.498;2023-07-28T05:32:12;2.20;;;1.10;;
3523;SDS011;1776;53.330;11.498;2023-07-28T05:34:38;1.30;;;1.10;;
3523;SDS011;1776;53.330;11.498;2023-07-28T05:37:07;1.30;;;1.20;;
3523;SDS011;1776;53.330;11.498;2023-07-28T05:39:32;1.10;;;1.00;;
3523;SDS011;1776;53.330;11.498;2023-07-28T05:41:57;1.67;;;1.57;;
3523;SDS011;1776;53.330;11.498;2023-07-28T05:44:23;1.30;;;1.20;;
3523;SDS011;1776;53.330;11.498;2023-07-28T05:46:48;1.07;;;1.07;;
3523;SDS011;1776;53.330;11.498;2023-07-28T05:52:12;1.00;;;1.00;;
3523;SDS011;1776;53.330;11.498;2023-07-28T05:54:38;1.17;;;1.10;;
3523;SDS011;1776;53.330;11.498;2023-07-28T05:57:03;1.37;;;0.90;;
3523;SDS011;1776;53.330;11.498;2023-07-28T05:59:28;1.50;;;1.00;;
3523;SDS011;1776;53.330;11.498;2023-07-28T06:01:54;1.13;;;1.00;;
3523;SDS011;1776;53.330;11.498;2023-07-28T06:04:20;1.10;;;1.00;;
3523;SDS011;1776;53.330;11.498;2023-07-28T06:06:45;0.90;;;0.90;;
3523;SDS011;1776;53.330;11.498;2023-07-28T06:09:10;0.83;;;0.83;;
3523;SDS011;1776;53.330;11.498;2023-07-28T06:11:35;0.90;;;0.90;;
3523;SDS011;1776;53.330;11.498;2023-07-28T06:14:01;0.77;;;0.77;;
3523;SDS011;1776;53.330;11.498;2023-07-28T06:16:26;0.67;;;0.67;;
3523;SDS011;1776;53.330;11.498;2023-07-28T06:18:51;0.73;;;0.73;;
3523;SDS011;1776;53.330;11.498;2023-07-28T06:21:16;0.90;;;0.90;;
3523;SDS011;1776;53.330;11.498;2023-07-28T06:23:42;0.80;;;0.80;;
3523;SDS011;1776;53.330;11.498;2023-07-28T06:26:07;0.83;;;0.80;;
3523;SDS011;1776;53.330;11.498;2023-07-28T06:28:32;0.97;;;0.97;;
3523;SDS011;1776;53.330;11.498;2023-07-28T06:30:58;2.20;;;1.00;;
3523;SDS011;1776;53.330;11.498;2023-07-28T06:33:24;3.23;;;0.80;;
3523;SDS011;1776;53.330;11.498;2023-07-28T06:35:50;0.63;;;0.63;;
3523;SDS011;1776;53.330;11.498;2023-07-28T06:38:15;0.80;;;0.80;;
3523;SDS011;1776;53.330;11.498;2023-07-28T06:40:40;0.70;;;0.70;;
3523;SDS011;1776;53.330;11.498;2023-07-28T06:43:06;0.73;;;0.73;;
3523;SDS011;1776;53.330;11.498;2023-07-28T06:45:32;1.37;;;0.90;;
3523;SDS011;1776;53.330;11.498;2023-07-28T06:47:58;0.83;;;0.83;;
3523;SDS011;1776;53.330;11.498;2023-07-28T06:50:23;0.97;;;0.90;;
3523;SDS011;1776;53.330;11.498;2023-07-28T06:52:48;0.90;;;0.80;;
3523;SDS011;1776;53.330;11.498;2023-07-28T06:55:15;0.90;;;0.67;;
3523;SDS011;1776;53.330;11.498;2023-07-28T06:57:41;0.80;;;0.80;;
3523;SDS011;1776;53.330;11.498;2023-07-28T07:00:06;0.80;;;0.80;;
3523;SDS011;1776;53.330;11.498;2023-07-28T07:02:34;1.97;;;0.90;;
3523;SDS011;1776;53.330;11.498;2023-07-28T07:05:00;0.73;;;0.67;;
3523;SDS011;1776;53.330;11.498;2023-07-28T07:07:25;0.70;;;0.70;;
3523;SDS011;1776;53.330;11.498;2023-07-28T07:09:50;0.90;;;0.80;;
3523;SDS011;1776;53.330;11.498;2023-07-28T07:12:16;0.63;;;0.63;;
3523;SDS011;1776;53.330;11.498;2023-07-28T07:14:41;0.90;;;0.50;;
3523;SDS011;1776;53.330;11.498;2023-07-28T07:17:06;1.60;;;0.70;;
3523;SDS011;1776;53.330;11.498;2023-07-28T07:19:32;1.60;;;0.57;;
3523;SDS011;1776;53.330;11.498;2023-07-28T07:21:57;0.63;;;0.63;;
3523;SDS011;1776;53.330;11.498;2023-07-28T07:24:22;0.80;;;0.67;;
3523;SDS011;1776;53.330;11.498;2023-07-28T07:26:48;1.10;;;0.70;;
3523;SDS011;1776;53.330;11.498;2023-07-28T07:29:13;0.60;;;0.60;;
3523;SDS011;1776;53.330;11.498;2023-07-28T07:31:38;1.47;;;0.50;;
3523;SDS011;1776;53.330;11.498;2023-07-28T07:34:04;0.50;;;0.50;;
3523;SDS011;1776;53.330;11.498;2023-07-28T07:36:29;0.50;;;0.50;;
3523;SDS011;1776;53.330;11.498;2023-07-28T07:38:55;0.70;;;0.70;;
3523;SDS011;1776;53.330;11.498;2023-07-28T07:41:21;0.60;;;0.60;;
3523;SDS011;1776;53.330;11.498;2023-07-28T07:43:47;0.70;;;0.70;;
3523;SDS011;1776;53.330;11.498;2023-07-28T07:46:14;0.87;;;0.87;;
3523;SDS011;1776;53.330;11.498;2023-07-28T07:48:40;0.73;;;0.70;;
3523;SDS011;1776;53.330;11.498;2023-07-28T07:51:06;1.37;;;0.90;;
3523;SDS011;1776;53.330;11.498;2023-07-28T07:53:32;2.50;;;1.30;;
3523;SDS011;1776;53.330;11.498;2023-07-28T07:55:57;1.73;;;1.00;;
3523;SDS011;1776;53.330;11.498;2023-07-28T07:58:22;0.87;;;0.80;;
3523;SDS011;1776;53.330;11.498;2023-07-28T08:00:48;0.97;;;0.87;;
3523;SDS011;1776;53.330;11.498;2023-07-28T08:03:13;0.87;;;0.70;;
3523;SDS011;1776;53.330;11.498;2023-07-28T08:05:38;1.57;;;0.80;;
3523;SDS011;1776;53.330;11.498;2023-07-28T08:08:04;0.73;;;0.73;;
3523;SDS011;1776;53.330;11.498;2023-07-28T08:10:32;0.93;;;0.70;;
3523;SDS011;1776;53.330;11.498;2023-07-28T08:12:57;0.70;;;0.70;;
3523;SDS011;1776;53.330;11.498;2023-07-28T08:15:22;1.90;;;0.83;;
3523;SDS011;1776;53.330;11.498;2023-07-28T08:17:48;0.80;;;0.80;;
3523;SDS011;1776;53.330;11.498;2023-07-28T08:20:13;1.03;;;0.73;;
3523;SDS011;1776;53.330;11.498;2023-07-28T08:22:40;0.80;;;0.80;;
3523;SDS011;1776;53.330;11.498;2023-07-28T08:25:05;0.70;;;0.70;;
3523;SDS011;1776;53.330;11.498;2023-07-28T08:27:31;0.77;;;0.77;;
3523;SDS011;1776;53.330;11.498;2023-07-28T08:29:56;1.37;;;0.80;;
3523;SDS011;1776;53.330;11.498;2023-07-28T08:32:21;1.33;;;0.90;;
3523;SDS011;1776;53.330;11.498;2023-07-28T08:34:47;1.47;;;0.70;;
3523;SDS011;1776;53.330;11.498;2023-07-28T08:37:12;1.47;;;0.70;;
3523;SDS011;1776;53.330;11.498;2023-07-28T08:39:38;0.70;;;0.70;;
3523;SDS011;1776;53.330;11.498;2023-07-28T08:42:03;1.47;;;0.90;;
3523;SDS011;1776;53.330;11.498;2023-07-28T08:44:30;0.60;;;0.60;;
3523;SDS011;1776;53.330;11.498;2023-07-28T08:46:57;1.00;;;0.80;;
3523;SDS011;1776;53.330;11.498;2023-07-28T08:49:22;1.10;;;0.90;;
3523;SDS011;1776;53.330;11.498;2023-07-28T08:51:50;0.70;;;0.70;;
3523;SDS011;1776;53.330;11.498;2023-07-28T08:54:17;1.93;;;0.73;;
3523;SDS011;1776;53.330;11.498;2023-07-28T08:56:43;1.83;;;0.90;;
3523;SDS011;1776;53.330;11.498;2023-07-28T08:59:09;1.70;;;0.97;;
3523;SDS011;1776;53.330;11.498;2023-07-28T09:01:38;1.07;;;0.80;;
3523;SDS011;1776;53.330;11.498;2023-07-28T09:04:09;1.70;;;1.10;;
3523;SDS011;1776;53.330;11.498;2023-07-28T09:06:37;1.33;;;0.67;;
3523;SDS011;1776;53.330;11.498;2023-07-28T09:09:06;1.47;;;1.00;;
3523;SDS011;1776;53.330;11.498;2023-07-28T09:11:32;1.13;;;1.10;;
3523;SDS011;1776;53.330;11.498;2023-07-28T09:13:59;0.80;;;0.80;;
3523;SDS011;1776;53.330;11.498;2023-07-28T09:16:25;0.60;;;0.60;;
3523;SDS011;1776;53.330;11.498;2023-07-28T09:18:51;1.33;;;1.03;;
3523;SDS011;1776;53.330;11.498;2023-07-28T09:21:19;1.10;;;1.00;;
3523;SDS011;1776;53.330;11.498;2023-07-28T09:23:48;1.17;;;1.17;;
3523;SDS011;1776;53.330;11.498;2023-07-28T09:26:14;1.07;;;1.07;;
3523;SDS011;1776;53.330;11.498;2023-07-28T09:28:40;1.03;;;0.93;;
3523;SDS011;1776;53.330;11.498;2023-07-28T09:31:06;1.30;;;1.00;;
3523;SDS011;1776;53.330;11.498;2023-07-28T09:33:33;1.63;;;1.13;;
3523;SDS011;1776;53.330;11.498;2023-07-28T09:36:09;1.07;;;1.00;;
3523;SDS011;1776;53.330;11.498;2023-07-28T09:38:37;1.27;;;1.17;;
3523;SDS011;1776;53.330;11.498;2023-07-28T09:41:05;2.03;;;1.00;;
3523;SDS011;1776;53.330;11.498;2023-07-28T09:43:34;1.47;;;1.20;;
3523;SDS011;1776;53.330;11.498;2023-07-28T09:46:03;0.77;;;0.77;;
3523;SDS011;1776;53.330;11.498;2023-07-28T09:48:31;1.20;;;1.10;;
3523;SDS011;1776;53.330;11.498;2023-07-28T09:50:57;2.10;;;1.13;;
3523;SDS011;1776;53.330;11.498;2023-07-28T09:53:24;1.37;;;1.27;;
3523;SDS011;1776;53.330;11.498;2023-07-28T09:55:53;1.53;;;1.20;;
3523;SDS011;1776;53.330;11.498;2023-07-28T09:58:18;2.07;;;1.50;;
3523;SDS011;1776;53.330;11.498;2023-07-28T10:00:47;1.97;;;1.60;;
3523;SDS011;1776;53.330;11.498;2023-07-28T10:03:12;1.53;;;1.43;;
3523;SDS011;1776;53.330;11.498;2023-07-28T10:05:39;1.40;;;1.30;;
3523;SDS011;1776;53.330;11.498;2023-07-28T10:08:05;0.90;;;0.90;;
3523;SDS011;1776;53.330;11.498;2023-07-28T10:10:31;1.70;;;1.27;;
3523;SDS011;1776;53.330;11.498;2023-07-28T10:12:58;1.20;;;1.10;;
3523;SDS011;1776;53.330;11.498;2023-07-28T10:15:28;1.30;;;1.00;;
3523;SDS011;1776;53.330;11.498;2023-07-28T10:17:56;1.10;;;1.00;;
3523;SDS011;1776;53.330;11.498;2023-07-28T10:20:35;1.13;;;1.03;;
3523;SDS011;1776;53.330;11.498;2023-07-28T10:23:04;2.50;;;1.10;;
3523;SDS011;1776;53.330;11.498;2023-07-28T10:25:40;1.00;;;0.90;;
3523;SDS011;1776;53.330;11.498;2023-07-28T10:28:06;0.90;;;0.90;;
3523;SDS011;1776;53.330;11.498;2023-07-28T10:30:52;1.63;;;1.17;;
3523;SDS011;1776;53.330;11.498;2023-07-28T10:33:29;1.37;;;1.23;;
3523;SDS011;1776;53.330;11.498;2023-07-28T10:35:54;1.20;;;1.10;;
3523;SDS011;1776;53.330;11.498;2023-07-28T10:38:29;1.37;;;1.27;;
3523;SDS011;1776;53.330;11.498;2023-07-28T10:43:32;1.40;;;1.30;;
3523;SDS011;1776;53.330;11.498;2023-07-28T10:45:57;2.00;;;1.47;;
3523;SDS011;1776;53.330;11.498;2023-07-28T10:48:22;1.33;;;1.23;;
3523;SDS011;1776;53.330;11.498;2023-07-28T10:50:49;2.03;;;1.30;;
3523;SDS011;1776;53.330;11.498;2023-07-28T10:53:14;1.00;;;1.00;;
3523;SDS011;1776;53.330;11.498;2023-07-28T10:55:40;1.00;;;1.00;;
3523;SDS011;1776;53.330;11.498;2023-07-28T10:58:05;1.30;;;1.20;;
3523;SDS011;1776;53.330;11.498;2023-07-28T11:00:31;1.03;;;1.03;;
3523;SDS011;1776;53.330;11.498;2023-07-28T11:02:56;1.43;;;1.10;;
3523;SDS011;1776;53.330;11.498;2023-07-28T11:05:23;1.47;;;1.20;;
3523;SDS011;1776;53.330;11.498;2023-07-28T11:07:51;1.30;;;1.20;;
3523;SDS011;1776;53.330;11.498;2023-07-28T11:10:18;1.10;;;1.00;;
3523;SDS011;1776;53.330;11.498;2023-07-28T11:12:44;1.10;;;1.00;;
3523;SDS011;1776;53.330;11.498;2023-07-28T11:15:12;1.20;;;1.10;;
3523;SDS011;1776;53.330;11.498;2023-07-28T11:17:39;1.00;;;0.90;;
3523;SDS011;1776;53.330;11.498;2023-07-28T11:22:54;1.00;;;1.00;;
3523;SDS011;1776;53.330;11.498;2023-07-28T11:25:22;1.33;;;1.10;;
3523;SDS011;1776;53.330;11.498;2023-07-28T11:27:48;2.40;;;1.17;;
3523;SDS011;1776;53.330;11.498;2023-07-28T11:30:14;1.37;;;1.10;;
3523;SDS011;1776;53.330;11.498;2023-07-28T11:32:44;1.33;;;1.23;;
3523;SDS011;1776;53.330;11.498;2023-07-28T11:35:14;1.00;;;1.00;;
3523;SDS011;1776;53.330;11.498;2023-07-28T11:37:42;1.87;;;1.77;;
3523;SDS011;1776;53.330;11.498;2023-07-28T11:40:09;1.30;;;1.30;;
3523;SDS011;1776;53.330;11.498;2023-07-28T11:42:38;1.53;;;1.43;;
3523;SDS011;1776;53.330;11.498;2023-07-28T11:45:05;1.97;;;1.57;;
3523;SDS011;1776;53.330;11.498;2023-07-28T11:47:32;1.50;;;1.40;;
3523;SDS011;1776;53.330;11.498;2023-07-28T11:49:57;1.50;;;1.40;;
3523;SDS011;1776;53.330;11.498;2023-07-28T11:52:36;2.43;;;1.30;;
3523;SDS011;1776;53.330;11.498;2023-07-28T11:55:05;1.50;;;1.40;;
3523;SDS011;1776;53.330;11.498;2023-07-28T11:57:31;1.40;;;1.30;;
3523;SDS011;1776;53.330;11.498;2023-07-28T11:59:57;1.40;;;1.30;;
3523;SDS011;1776;53.330;11.498;2023-07-28T12:02:29;1.73;;;1.63;;
3523;SDS011;1776;53.330;11.498;2023-07-28T12:04:56;1.57;;;1.47;;
3523;SDS011;1776;53.330;11.498;2023-07-28T12:10:02;1.63;;;1.53;;
3523;SDS011;1776;53.330;11.498;2023-07-28T12:12:31;1.67;;;1.57;;
3523;SDS011;1776;53.330;11.498;2023-07-28T12:15:17;2.33;;;1.83;;
3523;SDS011;1776;53.330;11.498;2023-07-28T12:18:02;2.30;;;1.17;;
3523;SDS011;1776;53.330;11.498;2023-07-28T12:20:37;2.20;;;1.23;;
3523;SDS011;1776;53.330;11.498;2023-07-28T12:23:05;1.83;;;1.73;;
3523;SDS011;1776;53.330;11.498;2023-07-28T12:25:31;3.30;;;1.60;;
3523;SDS011;1776;53.330;11.498;2023-07-28T12:27:57;1.43;;;1.33;;
3523;SDS011;1776;53.330;11.498;2023-07-28T12:30:22;1.60;;;1.50;;
3523;SDS011;1776;53.330;11.498;2023-07-28T12:32:48;1.67;;;1.57;;
3523;SDS011;1776;53.330;11.498;2023-07-28T12:35:13;1.60;;;1.50;;
3523;SDS011;1776;53.330;11.498;2023-07-28T12:37:38;1.80;;;1.70;;
3523;SDS011;1776;53.330;11.498;2023-07-28T12:40:04;1.67;;;1.57;;
3523;SDS011;1776;53.330;11.498;2023-07-28T12:42:31;1.53;;;1.43;;
3523;SDS011;1776;53.330;11.498;2023-07-28T12:44:56;1.80;;;1.70;;
3523;SDS011;1776;53.330;11.498;2023-07-28T12:47:22;1.57;;;1.43;;
3523;SDS011;1776;53.330;11.498;2023-07-28T12:49:47;1.73;;;1.63;;
3523;SDS011;1776;53.330;11.498;2023-07-28T12:52:12;1.50;;;1.40;;
3523;SDS011;1776;53.330;11.498;2023-07-28T12:54:38;1.53;;;1.43;;
3523;SDS011;1776;53.330;11.498;2023-07-28T12:57:04;1.87;;;1.40;;
3523;SDS011;1776;53.330;11.498;2023-07-28T12:59:32;1.70;;;1.37;;
3523;SDS011;1776;53.330;11.498;2023-07-28T13:01:57;1.90;;;1.30;;
3523;SDS011;1776;53.330;11.498;2023-07-28T13:04:22;1.50;;;1.40;;
3523;SDS011;1776;53.330;11.498;2023-07-28T13:06:48;1.50;;;1.40;;
3523;SDS011;1776;53.330;11.498;2023-07-28T13:09:13;1.77;;;1.67;;
3523;SDS011;1776;53.330;11.498;2023-07-28T13:11:38;1.60;;;1.50;;
3523;SDS011;1776;53.330;11.498;2023-07-28T13:14:03;1.70;;;1.60;;
3523;SDS011;1776;53.330;11.498;2023-07-28T13:16:29;1.70;;;1.60;;
3523;SDS011;1776;53.330;11.498;2023-07-28T13:18:54;2.00;;;1.90;;
3523;SDS011;1776;53.330;11.498;2023-07-28T13:21:20;1.40;;;1.30;;
3523;SDS011;1776;53.330;11.498;2023-07-28T13:23:45;1.60;;;1.50;;
3523;SDS011;1776;53.330;11.498;2023-07-28T13:26:11;1.50;;;1.40;;
3523;SDS011;1776;53.330;11.498;2023-07-28T13:28:36;1.87;;;1.77;;
3523;SDS011;1776;53.330;11.498;2023-07-28T13:31:02;1.70;;;1.60;;
3523;SDS011;1776;53.330;11.498;2023-07-28T13:33:28;1.53;;;1.30;;
3523;SDS011;1776;53.330;11.498;2023-07-28T13:35:53;1.33;;;1.23;;
3523;SDS011;1776;53.330;11.498;2023-07-28T13:38:18;1.20;;;1.10;;
3523;SDS011;1776;53.330;11.498;2023-07-28T13:40:44;1.50;;;1.40;;
3523;SDS011;1776;53.330;11.498;2023-07-28T13:43:09;1.87;;;1.77;;
3523;SDS011;1776;53.330;11.498;2023-07-28T13:45:34;1.40;;;1.30;;
3523;SDS011;1776;53.330;11.498;2023-07-28T13:48:00;1.57;;;1.47;;
3523;SDS011;1776;53.330;11.498;2023-07-28T13:50:25;1.70;;;1.60;;
3523;SDS011;1776;53.330;11.498;2023-07-28T13:52:51;2.10;;;2.00;;
3523;SDS011;1776;53.330;11.498;2023-07-28T13:55:16;1.53;;;1.43;;
3523;SDS011;1776;53.330;11.498;2023-07-28T13:57:41;4.10;;;1.50;;
3523;SDS011;1776;53.330;11.498;2023-07-28T14:00:07;1.40;;;1.30;;
3523;SDS011;1776;53.330;11.498;2023-07-28T14:02:38;1.80;;;1.70;;
3523;SDS011;1776;53.330;11.498;2023-07-28T14:05:04;1.40;;;1.30;;
3523;SDS011;1776;53.330;11.498;2023-07-28T14:07:31;1.67;;;1.57;;
3523;SDS011;1776;53.330;11.498;2023-07-28T14:09:56;1.33;;;1.23;;
3523;SDS011;1776;53.330;11.498;2023-07-28T14:12:22;1.47;;;1.37;;
3523;SDS011;1776;53.330;11.498;2023-07-28T14:14:47;0.80;;;0.80;;
3523;SDS011;1776;53.330;11.498;2023-07-28T14:17:12;2.77;;;1.23;;
3523;SDS011;1776;53.330;11.498;2023-07-28T14:19:38;1.40;;;1.23;;
3523;SDS011;1776;53.330;11.498;2023-07-28T14:22:04;1.30;;;1.20;;
3523;SDS011;1776;53.330;11.498;2023-07-28T14:24:29;1.87;;;1.07;;
3523;SDS011;1776;53.330;11.498;2023-07-28T14:26:54;1.60;;;1.20;;
3523;SDS011;1776;53.330;11.498;2023-07-28T14:29:20;1.67;;;1.10;;
3523;SDS011;1776;53.330;11.498;2023-07-28T14:31:45;1.40;;;1.00;;
3523;SDS011;1776;53.330;11.498;2023-07-28T14:34:10;1.50;;;1.40;;
3523;SDS011;1776;53.330;11.498;2023-07-28T14:36:35;1.40;;;1.20;;
3523;SDS011;1776;53.330;11.498;2023-07-28T14:39:01;1.40;;;1.30;;
3523;SDS011;1776;53.330;11.498;2023-07-28T14:41:26;1.50;;;1.40;;
3523;SDS011;1776;53.330;11.498;2023-07-28T14:43:52;1.10;;;1.00;;
3523;SDS011;1776;53.330;11.498;2023-07-28T14:46:17;1.37;;;1.27;;
3523;SDS011;1776;53.330;11.498;2023-07-28T14:48:42;1.43;;;1.30;;
3523;SDS011;1776;53.330;11.498;2023-07-28T14:51:07;1.30;;;1.20;;
3523;SDS011;1776;53.330;11.498;2023-07-28T14:53:34;1.40;;;1.30;;
3523;SDS011;1776;53.330;11.498;2023-07-28T14:56:01;1.67;;;1.30;;
3523;SDS011;1776;53.330;11.498;2023-07-28T14:58:27;1.27;;;1.17;;
3523;SDS011;1776;53.330;11.498;2023-07-28T15:00:54;1.33;;;1.23;;
3523;SDS011;1776;53.330;11.498;2023-07-28T15:03:19;1.57;;;1.47;;
3523;SDS011;1776;53.330;11.498;2023-07-28T15:05:44;1.40;;;1.30;;
3523;SDS011;1776;53.330;11.498;2023-07-28T15:08:10;1.37;;;1.27;;
3523;SDS011;1776;53.330;11.498;2023-07-28T15:10:35;1.80;;;1.70;;